sensor_id;sensor_type;location;lat;lon;timestamp;P1;durP1;ratioP1;P2;durP2;ratioP2
52816;SDS011;38687;43.330;21.924;2023-01-25T00:00:38;34.80;;;18.10;;
52816;SDS011;38687;43.330;21.924;2023-01-25T00:03:04;29.10;;;14.70;;
52816;SDS011;38687;43.330;21.924;2023-01-25T00:05:29;22.17;;;10.70;;
52816;SDS011;38687;43.330;21.924;2023-01-25T00:07:54;37.07;;;17.03;;
52816;SDS011;38687;43.330;21.924;2023-01-25T00:10:20;18.48;;;10.00;;
52816;SDS011;38687;43.330;21.924;2023-01-25T00:12:45;16.38;;;8.77;;
52816;SDS011;38687;43.330;21.924;2023-01-25T00:15:10;23.90;;;10.70;;
52816;SDS011;38687;43.330;21.924;2023-01-25T00:17:35;18.00;;;9.85;;
52816;SDS011;38687;43.330;21.924;2023-01-25T00:20:01;15.40;;;8.13;;
52816;SDS011;38687;43.330;21.924;2023-01-25T00:22:26;12.57;;;6.63;;
52816;SDS011;38687;43.330;21.924;2023-01-25T00:24:52;15.05;;;7.93;;
52816;SDS011;38687;43.330;21.924;2023-01-25T00:27:17;15.65;;;7.80;;
52816;SDS011;38687;43.330;21.924;2023-01-25T00:29:42;12.70;;;6.57;;
52816;SDS011;38687;43.330;21.924;2023-01-25T00:34:45;10.65;;;6.03;;
52816;SDS011;38687;43.330;21.924;2023-01-25T00:37:12;15.15;;;7.15;;
52816;SDS011;38687;43.330;21.924;2023-01-25T00:39:38;12.00;;;6.90;;
52816;SDS011;38687;43.330;21.924;2023-01-25T00:42:06;11.32;;;5.60;;
52816;SDS011;38687;43.330;21.924;2023-01-25T00:44:32;16.20;;;7.88;;
52816;SDS011;38687;43.330;21.924;2023-01-25T00:46:57;15.23;;;6.50;;
52816;SDS011;38687;43.330;21.924;2023-01-25T00:49:24;23.15;;;11.32;;
52816;SDS011;38687;43.330;21.924;2023-01-25T00:51:50;19.67;;;9.60;;
52816;SDS011;38687;43.330;21.924;2023-01-25T00:54:16;28.77;;;11.98;;
52816;SDS011;38687;43.330;21.924;2023-01-25T00:56:41;22.33;;;12.18;;
52816;SDS011;38687;43.330;21.924;2023-01-25T00:59:08;14.27;;;7.40;;
52816;SDS011;38687;43.330;21.924;2023-01-25T01:01:33;14.10;;;8.00;;
52816;SDS011;38687;43.330;21.924;2023-01-25T01:03:58;14.55;;;6.90;;
52816;SDS011;38687;43.330;21.924;2023-01-25T01:06:24;23.65;;;8.30;;
52816;SDS011;38687;43.330;21.924;2023-01-25T01:08:49;12.98;;;6.88;;
52816;SDS011;38687;43.330;21.924;2023-01-25T01:11:14;15.48;;;8.02;;
52816;SDS011;38687;43.330;21.924;2023-01-25T01:13:40;13.00;;;6.88;;
52816;SDS011;38687;43.330;21.924;2023-01-25T01:16:06;14.27;;;7.30;;
52816;SDS011;38687;43.330;21.924;2023-01-25T01:18:44;13.25;;;6.10;;
52816;SDS011;38687;43.330;21.924;2023-01-25T01:21:10;14.27;;;6.90;;
52816;SDS011;38687;43.330;21.924;2023-01-25T01:23:36;10.07;;;6.32;;
52816;SDS011;38687;43.330;21.924;2023-01-25T01:26:01;17.35;;;7.55;;
52816;SDS011;38687;43.330;21.924;2023-01-25T01:28:27;12.27;;;6.55;;
52816;SDS011;38687;43.330;21.924;2023-01-25T01:30:52;11.10;;;6.50;;
52816;SDS011;38687;43.330;21.924;2023-01-25T01:33:18;10.07;;;5.60;;
52816;SDS011;38687;43.330;21.924;2023-01-25T01:35:43;10.37;;;5.13;;
52816;SDS011;38687;43.330;21.924;2023-01-25T01:38:10;10.23;;;5.47;;
52816;SDS011;38687;43.330;21.924;2023-01-25T01:40:36;7.30;;;4.47;;
52816;SDS011;38687;43.330;21.924;2023-01-25T01:43:05;8.63;;;5.03;;
52816;SDS011;38687;43.330;21.924;2023-01-25T01:50:53;11.40;;;4.53;;
52816;SDS011;38687;43.330;21.924;2023-01-25T01:53:22;8.18;;;4.95;;
52816;SDS011;38687;43.330;21.924;2023-01-25T01:55:48;10.88;;;5.03;;
52816;SDS011;38687;43.330;21.924;2023-01-25T01:58:13;8.05;;;4.80;;
52816;SDS011;38687;43.330;21.924;2023-01-25T02:00:40;9.20;;;5.18;;
52816;SDS011;38687;43.330;21.924;2023-01-25T02:03:05;10.57;;;6.47;;
52816;SDS011;38687;43.330;21.924;2023-01-25T02:05:53;8.27;;;4.75;;
52816;SDS011;38687;43.330;21.924;2023-01-25T02:08:20;10.43;;;4.43;;
52816;SDS011;38687;43.330;21.924;2023-01-25T02:10:46;9.55;;;4.88;;
52816;SDS011;38687;43.330;21.924;2023-01-25T02:13:13;8.55;;;5.22;;
52816;SDS011;38687;43.330;21.924;2023-01-25T02:15:45;10.85;;;5.55;;
52816;SDS011;38687;43.330;21.924;2023-01-25T02:18:11;10.23;;;6.28;;
52816;SDS011;38687;43.330;21.924;2023-01-25T02:20:43;8.60;;;5.07;;
52816;SDS011;38687;43.330;21.924;2023-01-25T02:23:18;13.30;;;6.72;;
52816;SDS011;38687;43.330;21.924;2023-01-25T02:25:46;13.38;;;7.65;;
52816;SDS011;38687;43.330;21.924;2023-01-25T02:28:22;9.98;;;5.07;;
52816;SDS011;38687;43.330;21.924;2023-01-25T02:30:49;10.30;;;5.68;;
52816;SDS011;38687;43.330;21.924;2023-01-25T02:33:15;11.10;;;6.22;;
52816;SDS011;38687;43.330;21.924;2023-01-25T02:35:41;15.60;;;7.90;;
52816;SDS011;38687;43.330;21.924;2023-01-25T02:38:08;12.57;;;6.60;;
52816;SDS011;38687;43.330;21.924;2023-01-25T02:40:35;12.45;;;6.13;;
52816;SDS011;38687;43.330;21.924;2023-01-25T02:43:04;11.85;;;5.95;;
52816;SDS011;38687;43.330;21.924;2023-01-25T02:45:29;13.13;;;5.78;;
52816;SDS011;38687;43.330;21.924;2023-01-25T02:47:54;11.07;;;6.90;;
52816;SDS011;38687;43.330;21.924;2023-01-25T02:50:20;8.27;;;4.47;;
52816;SDS011;38687;43.330;21.924;2023-01-25T02:52:46;9.20;;;4.97;;
52816;SDS011;38687;43.330;21.924;2023-01-25T02:55:11;9.53;;;5.33;;
52816;SDS011;38687;43.330;21.924;2023-01-25T02:57:36;8.30;;;4.70;;
52816;SDS011;38687;43.330;21.924;2023-01-25T03:00:04;8.80;;;4.85;;
52816;SDS011;38687;43.330;21.924;2023-01-25T03:02:30;14.98;;;5.95;;
52816;SDS011;38687;43.330;21.924;2023-01-25T03:04:55;10.88;;;5.80;;
52816;SDS011;38687;43.330;21.924;2023-01-25T03:07:20;11.73;;;5.57;;
52816;SDS011;38687;43.330;21.924;2023-01-25T03:09:47;10.50;;;5.35;;
52816;SDS011;38687;43.330;21.924;2023-01-25T03:12:15;9.43;;;5.15;;
52816;SDS011;38687;43.330;21.924;2023-01-25T03:14:40;9.95;;;5.28;;
52816;SDS011;38687;43.330;21.924;2023-01-25T03:17:05;10.02;;;6.15;;
52816;SDS011;38687;43.330;21.924;2023-01-25T03:19:31;10.95;;;5.95;;
52816;SDS011;38687;43.330;21.924;2023-01-25T03:21:56;10.55;;;5.88;;
52816;SDS011;38687;43.330;21.924;2023-01-25T03:24:22;9.07;;;5.38;;
52816;SDS011;38687;43.330;21.924;2023-01-25T03:26:48;11.90;;;5.75;;
52816;SDS011;38687;43.330;21.924;2023-01-25T03:29:32;10.27;;;5.60;;
52816;SDS011;38687;43.330;21.924;2023-01-25T03:31:57;7.13;;;4.38;;
52816;SDS011;38687;43.330;21.924;2023-01-25T03:34:22;10.10;;;4.82;;
52816;SDS011;38687;43.330;21.924;2023-01-25T03:36:51;10.40;;;5.85;;
52816;SDS011;38687;43.330;21.924;2023-01-25T03:39:16;8.80;;;4.97;;
52816;SDS011;38687;43.330;21.924;2023-01-25T03:41:47;6.90;;;3.53;;
52816;SDS011;38687;43.330;21.924;2023-01-25T03:44:14;10.38;;;5.50;;
52816;SDS011;38687;43.330;21.924;2023-01-25T03:47:02;13.10;;;6.38;;
52816;SDS011;38687;43.330;21.924;2023-01-25T03:49:27;11.80;;;6.07;;
52816;SDS011;38687;43.330;21.924;2023-01-25T03:51:52;14.45;;;8.05;;
52816;SDS011;38687;43.330;21.924;2023-01-25T03:54:18;15.20;;;6.43;;
52816;SDS011;38687;43.330;21.924;2023-01-25T03:56:44;17.77;;;9.55;;
52816;SDS011;38687;43.330;21.924;2023-01-25T03:59:10;17.17;;;7.80;;
52816;SDS011;38687;43.330;21.924;2023-01-25T04:01:36;14.57;;;7.63;;
52816;SDS011;38687;43.330;21.924;2023-01-25T04:04:02;18.17;;;9.27;;
52816;SDS011;38687;43.330;21.924;2023-01-25T04:06:27;14.95;;;8.77;;
52816;SDS011;38687;43.330;21.924;2023-01-25T04:08:52;9.80;;;5.25;;
52816;SDS011;38687;43.330;21.924;2023-01-25T04:11:18;9.55;;;4.95;;
52816;SDS011;38687;43.330;21.924;2023-01-25T04:13:43;8.75;;;5.20;;
52816;SDS011;38687;43.330;21.924;2023-01-25T04:16:08;8.88;;;5.18;;
52816;SDS011;38687;43.330;21.924;2023-01-25T04:18:36;9.93;;;5.70;;
52816;SDS011;38687;43.330;21.924;2023-01-25T04:21:01;9.00;;;5.75;;
52816;SDS011;38687;43.330;21.924;2023-01-25T04:23:26;11.13;;;6.13;;
52816;SDS011;38687;43.330;21.924;2023-01-25T04:25:55;10.48;;;5.63;;
52816;SDS011;38687;43.330;21.924;2023-01-25T04:28:21;11.55;;;6.25;;
52816;SDS011;38687;43.330;21.924;2023-01-25T04:30:47;11.35;;;6.45;;
52816;SDS011;38687;43.330;21.924;2023-01-25T04:33:12;14.98;;;6.60;;
52816;SDS011;38687;43.330;21.924;2023-01-25T04:35:40;15.63;;;7.32;;
52816;SDS011;38687;43.330;21.924;2023-01-25T04:38:05;13.50;;;7.03;;
52816;SDS011;38687;43.330;21.924;2023-01-25T04:40:31;16.73;;;9.85;;
52816;SDS011;38687;43.330;21.924;2023-01-25T04:42:56;15.45;;;7.82;;
52816;SDS011;38687;43.330;21.924;2023-01-25T04:45:22;9.35;;;5.47;;
52816;SDS011;38687;43.330;21.924;2023-01-25T04:47:49;7.75;;;4.88;;
52816;SDS011;38687;43.330;21.924;2023-01-25T04:50:14;11.80;;;6.78;;
52816;SDS011;38687;43.330;21.924;2023-01-25T04:52:40;12.10;;;6.75;;
52816;SDS011;38687;43.330;21.924;2023-01-25T04:55:05;9.77;;;6.15;;
52816;SDS011;38687;43.330;21.924;2023-01-25T04:57:30;10.43;;;6.43;;
52816;SDS011;38687;43.330;21.924;2023-01-25T04:59:56;9.27;;;4.78;;
52816;SDS011;38687;43.330;21.924;2023-01-25T05:02:21;10.35;;;6.03;;
52816;SDS011;38687;43.330;21.924;2023-01-25T05:04:46;12.32;;;6.35;;
52816;SDS011;38687;43.330;21.924;2023-01-25T05:07:11;9.18;;;5.07;;
52816;SDS011;38687;43.330;21.924;2023-01-25T05:09:37;11.30;;;6.28;;
52816;SDS011;38687;43.330;21.924;2023-01-25T05:12:02;12.68;;;6.80;;
52816;SDS011;38687;43.330;21.924;2023-01-25T05:14:35;10.82;;;5.88;;
52816;SDS011;38687;43.330;21.924;2023-01-25T05:17:00;10.00;;;5.75;;
52816;SDS011;38687;43.330;21.924;2023-01-25T05:19:26;12.73;;;6.38;;
52816;SDS011;38687;43.330;21.924;2023-01-25T05:21:51;16.95;;;7.63;;
52816;SDS011;38687;43.330;21.924;2023-01-25T05:24:29;15.55;;;8.35;;
52816;SDS011;38687;43.330;21.924;2023-01-25T05:26:54;24.40;;;11.30;;
52816;SDS011;38687;43.330;21.924;2023-01-25T05:29:45;27.00;;;12.38;;
52816;SDS011;38687;43.330;21.924;2023-01-25T05:32:12;24.38;;;11.95;;
52816;SDS011;38687;43.330;21.924;2023-01-25T05:34:38;19.42;;;9.68;;
52816;SDS011;38687;43.330;21.924;2023-01-25T05:37:04;20.92;;;9.10;;
52816;SDS011;38687;43.330;21.924;2023-01-25T05:39:30;26.35;;;13.00;;
52816;SDS011;38687;43.330;21.924;2023-01-25T05:41:55;28.20;;;13.43;;
52816;SDS011;38687;43.330;21.924;2023-01-25T05:44:20;22.40;;;11.40;;
52816;SDS011;38687;43.330;21.924;2023-01-25T05:46:46;10.50;;;6.45;;
52816;SDS011;38687;43.330;21.924;2023-01-25T05:49:13;11.73;;;6.80;;
52816;SDS011;38687;43.330;21.924;2023-01-25T05:51:38;10.00;;;6.88;;
52816;SDS011;38687;43.330;21.924;2023-01-25T05:54:04;11.63;;;5.43;;
52816;SDS011;38687;43.330;21.924;2023-01-25T05:56:30;14.52;;;7.78;;
52816;SDS011;38687;43.330;21.924;2023-01-25T05:58:56;13.82;;;7.70;;
52816;SDS011;38687;43.330;21.924;2023-01-25T06:01:21;14.20;;;8.38;;
52816;SDS011;38687;43.330;21.924;2023-01-25T06:03:48;15.32;;;8.88;;
52816;SDS011;38687;43.330;21.924;2023-01-25T06:06:13;15.77;;;10.65;;
52816;SDS011;38687;43.330;21.924;2023-01-25T06:08:38;18.08;;;10.77;;
52816;SDS011;38687;43.330;21.924;2023-01-25T06:11:07;10.30;;;6.53;;
52816;SDS011;38687;43.330;21.924;2023-01-25T06:13:33;16.83;;;9.93;;
52816;SDS011;38687;43.330;21.924;2023-01-25T06:15:58;16.63;;;8.18;;
52816;SDS011;38687;43.330;21.924;2023-01-25T06:18:23;13.70;;;7.72;;
52816;SDS011;38687;43.330;21.924;2023-01-25T06:20:49;33.70;;;15.90;;
52816;SDS011;38687;43.330;21.924;2023-01-25T06:23:14;27.08;;;12.20;;
52816;SDS011;38687;43.330;21.924;2023-01-25T06:25:39;17.80;;;9.75;;
52816;SDS011;38687;43.330;21.924;2023-01-25T06:28:04;23.23;;;13.18;;
52816;SDS011;38687;43.330;21.924;2023-01-25T06:30:30;23.40;;;14.10;;
52816;SDS011;38687;43.330;21.924;2023-01-25T06:32:58;17.15;;;9.05;;
52816;SDS011;38687;43.330;21.924;2023-01-25T06:35:23;19.75;;;10.57;;
52816;SDS011;38687;43.330;21.924;2023-01-25T06:37:49;22.55;;;14.20;;
52816;SDS011;38687;43.330;21.924;2023-01-25T06:40:14;19.75;;;11.57;;
52816;SDS011;38687;43.330;21.924;2023-01-25T06:42:39;24.58;;;13.57;;
52816;SDS011;38687;43.330;21.924;2023-01-25T06:45:05;29.80;;;14.13;;
52816;SDS011;38687;43.330;21.924;2023-01-25T06:47:30;17.08;;;9.73;;
52816;SDS011;38687;43.330;21.924;2023-01-25T06:49:55;21.52;;;12.75;;
52816;SDS011;38687;43.330;21.924;2023-01-25T06:52:20;21.38;;;12.50;;
52816;SDS011;38687;43.330;21.924;2023-01-25T06:54:46;21.48;;;13.00;;
52816;SDS011;38687;43.330;21.924;2023-01-25T06:57:11;22.83;;;13.38;;
52816;SDS011;38687;43.330;21.924;2023-01-25T06:59:36;17.02;;;8.77;;
52816;SDS011;38687;43.330;21.924;2023-01-25T07:02:01;26.50;;;13.15;;
52816;SDS011;38687;43.330;21.924;2023-01-25T07:04:27;25.75;;;14.15;;
52816;SDS011;38687;43.330;21.924;2023-01-25T07:06:54;21.95;;;12.43;;
52816;SDS011;38687;43.330;21.924;2023-01-25T07:09:19;32.83;;;18.60;;
52816;SDS011;38687;43.330;21.924;2023-01-25T07:11:51;28.25;;;17.27;;
52816;SDS011;38687;43.330;21.924;2023-01-25T07:14:17;26.02;;;14.18;;
52816;SDS011;38687;43.330;21.924;2023-01-25T07:16:42;26.60;;;13.02;;
52816;SDS011;38687;43.330;21.924;2023-01-25T07:19:08;17.58;;;10.43;;
52816;SDS011;38687;43.330;21.924;2023-01-25T07:21:34;45.80;;;25.05;;
52816;SDS011;38687;43.330;21.924;2023-01-25T07:24:00;48.75;;;26.02;;
52816;SDS011;38687;43.330;21.924;2023-01-25T07:26:26;32.50;;;15.13;;
52816;SDS011;38687;43.330;21.924;2023-01-25T07:28:52;27.45;;;17.00;;
52816;SDS011;38687;43.330;21.924;2023-01-25T07:31:17;23.48;;;14.40;;
52816;SDS011;38687;43.330;21.924;2023-01-25T07:33:44;19.08;;;12.25;;
52816;SDS011;38687;43.330;21.924;2023-01-25T07:36:11;26.45;;;15.75;;
52816;SDS011;38687;43.330;21.924;2023-01-25T07:38:36;35.47;;;16.83;;
52816;SDS011;38687;43.330;21.924;2023-01-25T07:41:02;21.70;;;11.77;;
52816;SDS011;38687;43.330;21.924;2023-01-25T07:43:27;25.65;;;13.35;;
52816;SDS011;38687;43.330;21.924;2023-01-25T07:45:59;40.90;;;21.25;;
52816;SDS011;38687;43.330;21.924;2023-01-25T07:48:24;37.67;;;18.35;;
52816;SDS011;38687;43.330;21.924;2023-01-25T07:50:50;18.10;;;10.32;;
52816;SDS011;38687;43.330;21.924;2023-01-25T07:53:34;14.25;;;8.88;;
52816;SDS011;38687;43.330;21.924;2023-01-25T07:55:59;16.42;;;10.25;;
52816;SDS011;38687;43.330;21.924;2023-01-25T07:58:24;22.90;;;14.77;;
52816;SDS011;38687;43.330;21.924;2023-01-25T08:00:50;34.97;;;18.67;;
52816;SDS011;38687;43.330;21.924;2023-01-25T08:03:15;29.07;;;17.17;;
52816;SDS011;38687;43.330;21.924;2023-01-25T08:05:43;31.13;;;15.02;;
52816;SDS011;38687;43.330;21.924;2023-01-25T08:08:09;28.50;;;15.90;;
52816;SDS011;38687;43.330;21.924;2023-01-25T08:10:34;42.08;;;22.90;;
52816;SDS011;38687;43.330;21.924;2023-01-25T08:13:02;41.50;;;22.13;;
52816;SDS011;38687;43.330;21.924;2023-01-25T08:15:27;41.28;;;22.42;;
52816;SDS011;38687;43.330;21.924;2023-01-25T08:17:52;46.22;;;25.55;;
52816;SDS011;38687;43.330;21.924;2023-01-25T08:20:18;38.65;;;23.15;;
52816;SDS011;38687;43.330;21.924;2023-01-25T08:22:43;26.50;;;16.35;;
52816;SDS011;38687;43.330;21.924;2023-01-25T08:25:08;35.85;;;21.95;;
52816;SDS011;38687;43.330;21.924;2023-01-25T08:27:34;31.02;;;19.08;;
52816;SDS011;38687;43.330;21.924;2023-01-25T08:30:02;27.15;;;17.13;;
52816;SDS011;38687;43.330;21.924;2023-01-25T08:32:28;37.15;;;21.77;;
52816;SDS011;38687;43.330;21.924;2023-01-25T08:34:56;27.92;;;16.55;;
52816;SDS011;38687;43.330;21.924;2023-01-25T08:37:21;21.23;;;12.02;;
52816;SDS011;38687;43.330;21.924;2023-01-25T08:39:47;21.63;;;10.80;;
52816;SDS011;38687;43.330;21.924;2023-01-25T08:42:12;10.85;;;6.88;;
52816;SDS011;38687;43.330;21.924;2023-01-25T08:44:37;19.13;;;11.45;;
52816;SDS011;38687;43.330;21.924;2023-01-25T08:47:02;31.95;;;16.85;;
52816;SDS011;38687;43.330;21.924;2023-01-25T08:49:28;22.08;;;12.13;;
52816;SDS011;38687;43.330;21.924;2023-01-25T08:51:55;15.95;;;9.02;;
52816;SDS011;38687;43.330;21.924;2023-01-25T08:54:23;13.00;;;8.40;;
52816;SDS011;38687;43.330;21.924;2023-01-25T08:56:48;25.23;;;14.30;;
52816;SDS011;38687;43.330;21.924;2023-01-25T08:59:14;48.78;;;22.35;;
52816;SDS011;38687;43.330;21.924;2023-01-25T09:01:47;26.60;;;14.13;;
52816;SDS011;38687;43.330;21.924;2023-01-25T09:04:12;16.35;;;10.30;;
52816;SDS011;38687;43.330;21.924;2023-01-25T09:06:37;20.98;;;10.65;;
52816;SDS011;38687;43.330;21.924;2023-01-25T09:09:03;20.92;;;12.27;;
52816;SDS011;38687;43.330;21.924;2023-01-25T09:11:29;27.92;;;14.68;;
52816;SDS011;38687;43.330;21.924;2023-01-25T09:13:55;14.32;;;8.73;;
52816;SDS011;38687;43.330;21.924;2023-01-25T09:16:21;18.42;;;12.75;;
52816;SDS011;38687;43.330;21.924;2023-01-25T09:18:52;18.50;;;10.93;;
52816;SDS011;38687;43.330;21.924;2023-01-25T09:21:18;21.15;;;13.52;;
52816;SDS011;38687;43.330;21.924;2023-01-25T09:23:43;17.48;;;11.27;;
52816;SDS011;38687;43.330;21.924;2023-01-25T09:26:12;12.95;;;9.00;;
52816;SDS011;38687;43.330;21.924;2023-01-25T09:28:39;15.27;;;9.57;;
52816;SDS011;38687;43.330;21.924;2023-01-25T09:31:05;16.83;;;10.40;;
52816;SDS011;38687;43.330;21.924;2023-01-25T09:33:31;20.27;;;9.65;;
52816;SDS011;38687;43.330;21.924;2023-01-25T09:35:57;15.25;;;7.75;;
52816;SDS011;38687;43.330;21.924;2023-01-25T09:38:24;25.55;;;13.13;;
52816;SDS011;38687;43.330;21.924;2023-01-25T09:45:52;16.73;;;9.45;;
52816;SDS011;38687;43.330;21.924;2023-01-25T09:48:36;11.65;;;7.82;;
52816;SDS011;38687;43.330;21.924;2023-01-25T09:53:41;15.50;;;9.30;;
52816;SDS011;38687;43.330;21.924;2023-01-25T09:56:26;13.20;;;7.30;;
52816;SDS011;38687;43.330;21.924;2023-01-25T09:58:56;18.98;;;10.60;;
52816;SDS011;38687;43.330;21.924;2023-01-25T10:01:24;13.95;;;9.43;;
52816;SDS011;38687;43.330;21.924;2023-01-25T10:06:19;13.55;;;9.60;;
52816;SDS011;38687;43.330;21.924;2023-01-25T10:08:52;18.05;;;11.05;;
52816;SDS011;38687;43.330;21.924;2023-01-25T10:13:47;17.20;;;10.70;;
52816;SDS011;38687;43.330;21.924;2023-01-25T10:16:14;24.00;;;14.75;;
52816;SDS011;38687;43.330;21.924;2023-01-25T10:21:29;21.45;;;12.15;;
52816;SDS011;38687;43.330;21.924;2023-01-25T10:24:09;17.23;;;11.82;;
52816;SDS011;38687;43.330;21.924;2023-01-25T10:26:41;27.77;;;17.95;;
52816;SDS011;38687;43.330;21.924;2023-01-25T10:29:21;15.40;;;9.80;;
52816;SDS011;38687;43.330;21.924;2023-01-25T10:31:52;20.38;;;11.52;;
52816;SDS011;38687;43.330;21.924;2023-01-25T10:34:37;25.15;;;13.75;;
52816;SDS011;38687;43.330;21.924;2023-01-25T10:39:29;31.60;;;17.63;;
52816;SDS011;38687;43.330;21.924;2023-01-25T10:42:00;24.30;;;12.77;;
52816;SDS011;38687;43.330;21.924;2023-01-25T10:44:29;19.55;;;11.38;;
52816;SDS011;38687;43.330;21.924;2023-01-25T10:46:59;28.65;;;16.05;;
52816;SDS011;38687;43.330;21.924;2023-01-25T10:49:32;24.52;;;15.48;;
52816;SDS011;38687;43.330;21.924;2023-01-25T10:52:11;15.33;;;10.67;;
52816;SDS011;38687;43.330;21.924;2023-01-25T10:54:37;19.98;;;11.75;;
52816;SDS011;38687;43.330;21.924;2023-01-25T10:57:02;10.73;;;8.00;;
52816;SDS011;38687;43.330;21.924;2023-01-25T10:59:36;11.85;;;8.57;;
52816;SDS011;38687;43.330;21.924;2023-01-25T11:07:45;12.85;;;7.72;;
52816;SDS011;38687;43.330;21.924;2023-01-25T11:13:16;12.40;;;7.32;;
52816;SDS011;38687;43.330;21.924;2023-01-25T11:15:49;12.48;;;7.75;;
52816;SDS011;38687;43.330;21.924;2023-01-25T11:18:19;19.27;;;10.93;;
52816;SDS011;38687;43.330;21.924;2023-01-25T11:20:45;24.92;;;13.63;;
52816;SDS011;38687;43.330;21.924;2023-01-25T11:23:23;18.55;;;11.38;;
52816;SDS011;38687;43.330;21.924;2023-01-25T11:25:49;17.55;;;10.40;;
52816;SDS011;38687;43.330;21.924;2023-01-25T11:28:19;12.48;;;7.07;;
52816;SDS011;38687;43.330;21.924;2023-01-25T11:30:44;15.30;;;8.30;;
52816;SDS011;38687;43.330;21.924;2023-01-25T11:33:11;10.35;;;5.20;;
52816;SDS011;38687;43.330;21.924;2023-01-25T11:35:37;14.57;;;8.60;;
52816;SDS011;38687;43.330;21.924;2023-01-25T11:38:12;11.80;;;7.88;;
52816;SDS011;38687;43.330;21.924;2023-01-25T11:50:50;13.82;;;7.90;;
52816;SDS011;38687;43.330;21.924;2023-01-25T12:01:22;15.55;;;9.38;;
52816;SDS011;38687;43.330;21.924;2023-01-25T12:11:51;18.17;;;8.85;;
52816;SDS011;38687;43.330;21.924;2023-01-25T12:17:12;21.70;;;12.57;;
52816;SDS011;38687;43.330;21.924;2023-01-25T12:22:31;34.60;;;19.03;;
52816;SDS011;38687;43.330;21.924;2023-01-25T12:30:01;21.95;;;11.38;;
52816;SDS011;38687;43.330;21.924;2023-01-25T12:32:32;23.10;;;12.95;;
52816;SDS011;38687;43.330;21.924;2023-01-25T12:38:02;19.88;;;11.13;;
52816;SDS011;38687;43.330;21.924;2023-01-25T12:43:27;21.33;;;13.27;;
52816;SDS011;38687;43.330;21.924;2023-01-25T12:45:54;14.65;;;8.52;;
52816;SDS011;38687;43.330;21.924;2023-01-25T12:48:35;16.10;;;10.20;;
52816;SDS011;38687;43.330;21.924;2023-01-25T12:51:02;17.50;;;10.18;;
52816;SDS011;38687;43.330;21.924;2023-01-25T12:55:55;21.67;;;10.68;;
52816;SDS011;38687;43.330;21.924;2023-01-25T12:58:23;27.23;;;15.88;;
52816;SDS011;38687;43.330;21.924;2023-01-25T13:11:20;29.30;;;15.40;;
52816;SDS011;38687;43.330;21.924;2023-01-25T13:13:47;25.88;;;16.30;;
52816;SDS011;38687;43.330;21.924;2023-01-25T13:16:23;18.15;;;11.48;;
52816;SDS011;38687;43.330;21.924;2023-01-25T13:18:48;67.57;;;34.05;;
52816;SDS011;38687;43.330;21.924;2023-01-25T13:37:04;15.85;;;8.55;;
52816;SDS011;38687;43.330;21.924;2023-01-25T13:39:50;21.45;;;10.95;;
52816;SDS011;38687;43.330;21.924;2023-01-25T13:42:26;16.73;;;8.15;;
52816;SDS011;38687;43.330;21.924;2023-01-25T13:45:16;16.33;;;8.38;;
52816;SDS011;38687;43.330;21.924;2023-01-25T13:50:59;15.88;;;9.30;;
52816;SDS011;38687;43.330;21.924;2023-01-25T13:53:56;16.20;;;9.00;;
52816;SDS011;38687;43.330;21.924;2023-01-25T13:56:26;16.30;;;10.02;;
52816;SDS011;38687;43.330;21.924;2023-01-25T13:58:55;19.25;;;10.43;;
52816;SDS011;38687;43.330;21.924;2023-01-25T14:01:20;13.90;;;8.05;;
52816;SDS011;38687;43.330;21.924;2023-01-25T14:03:59;14.10;;;8.00;;
52816;SDS011;38687;43.330;21.924;2023-01-25T14:06:38;16.52;;;9.02;;
52816;SDS011;38687;43.330;21.924;2023-01-25T14:09:17;15.35;;;9.15;;
52816;SDS011;38687;43.330;21.924;2023-01-25T14:11:56;13.68;;;8.77;;
52816;SDS011;38687;43.330;21.924;2023-01-25T14:14:26;23.33;;;13.77;;
52816;SDS011;38687;43.330;21.924;2023-01-25T14:19:34;19.33;;;11.57;;
52816;SDS011;38687;43.330;21.924;2023-01-25T14:24:45;14.60;;;9.05;;
52816;SDS011;38687;43.330;21.924;2023-01-25T14:27:23;16.50;;;11.95;;
52816;SDS011;38687;43.330;21.924;2023-01-25T14:29:48;27.40;;;16.30;;
52816;SDS011;38687;43.330;21.924;2023-01-25T14:32:15;23.75;;;13.90;;
52816;SDS011;38687;43.330;21.924;2023-01-25T14:34:47;31.48;;;16.95;;
52816;SDS011;38687;43.330;21.924;2023-01-25T14:37:18;15.52;;;10.23;;
52816;SDS011;38687;43.330;21.924;2023-01-25T14:39:44;19.60;;;11.85;;
52816;SDS011;38687;43.330;21.924;2023-01-25T14:42:10;30.73;;;15.95;;
52816;SDS011;38687;43.330;21.924;2023-01-25T14:44:35;15.90;;;9.25;;
52816;SDS011;38687;43.330;21.924;2023-01-25T14:49:54;17.73;;;10.55;;
52816;SDS011;38687;43.330;21.924;2023-01-25T14:52:19;31.35;;;15.70;;
52816;SDS011;38687;43.330;21.924;2023-01-25T14:54:56;47.88;;;22.33;;
52816;SDS011;38687;43.330;21.924;2023-01-25T14:57:31;32.45;;;17.50;;
52816;SDS011;38687;43.330;21.924;2023-01-25T15:00:00;28.92;;;15.70;;
52816;SDS011;38687;43.330;21.924;2023-01-25T15:02:50;35.17;;;20.52;;
52816;SDS011;38687;43.330;21.924;2023-01-25T15:07:46;21.08;;;13.77;;
52816;SDS011;38687;43.330;21.924;2023-01-25T15:10:15;23.15;;;14.85;;
52816;SDS011;38687;43.330;21.924;2023-01-25T15:21:08;19.48;;;12.00;;
52816;SDS011;38687;43.330;21.924;2023-01-25T15:23:38;16.38;;;9.13;;
52816;SDS011;38687;43.330;21.924;2023-01-25T15:26:10;23.27;;;15.27;;
52816;SDS011;38687;43.330;21.924;2023-01-25T15:28:36;14.93;;;9.35;;
52816;SDS011;38687;43.330;21.924;2023-01-25T15:34:25;37.88;;;21.15;;
52816;SDS011;38687;43.330;21.924;2023-01-25T15:37:03;18.40;;;11.05;;
52816;SDS011;38687;43.330;21.924;2023-01-25T15:49:07;27.77;;;15.88;;
52816;SDS011;38687;43.330;21.924;2023-01-25T15:52:38;59.58;;;32.53;;
52816;SDS011;38687;43.330;21.924;2023-01-25T15:54:59;17.38;;;10.98;;
52816;SDS011;38687;43.330;21.924;2023-01-25T15:57:29;13.70;;;8.90;;
52816;SDS011;38687;43.330;21.924;2023-01-25T15:59:55;17.63;;;10.25;;
52816;SDS011;38687;43.330;21.924;2023-01-25T16:02:21;19.00;;;11.63;;
52816;SDS011;38687;43.330;21.924;2023-01-25T16:04:47;22.92;;;12.35;;
52816;SDS011;38687;43.330;21.924;2023-01-25T16:07:26;19.85;;;11.27;;
52816;SDS011;38687;43.330;21.924;2023-01-25T16:09:52;14.05;;;9.52;;
52816;SDS011;38687;43.330;21.924;2023-01-25T16:12:18;19.08;;;11.20;;
52816;SDS011;38687;43.330;21.924;2023-01-25T16:14:44;18.75;;;11.93;;
52816;SDS011;38687;43.330;21.924;2023-01-25T16:17:14;27.77;;;15.05;;
52816;SDS011;38687;43.330;21.924;2023-01-25T16:19:40;23.33;;;14.05;;
52816;SDS011;38687;43.330;21.924;2023-01-25T16:22:05;25.15;;;13.30;;
52816;SDS011;38687;43.330;21.924;2023-01-25T16:24:30;28.02;;;16.00;;
52816;SDS011;38687;43.330;21.924;2023-01-25T16:26:56;24.75;;;13.13;;
52816;SDS011;38687;43.330;21.924;2023-01-25T16:29:22;23.90;;;13.55;;
52816;SDS011;38687;43.330;21.924;2023-01-25T16:31:48;18.63;;;12.10;;
52816;SDS011;38687;43.330;21.924;2023-01-25T16:34:14;21.83;;;13.27;;
52816;SDS011;38687;43.330;21.924;2023-01-25T16:36:39;27.30;;;16.48;;
52816;SDS011;38687;43.330;21.924;2023-01-25T16:39:12;25.40;;;14.43;;
52816;SDS011;38687;43.330;21.924;2023-01-25T16:41:39;16.45;;;10.55;;